首页
METAR-TAF:

METAR-TAF

机场 :

諾里奇, 英格兰

纬度: 52-38N, 经度: 001-18E, 海拔: 14米

当前天气观测

该预报发布于26分钟前的19:20 UTC
风速8节,风向西南
温度 16°C
湿度 88%
气压 1018 hPa
能见度10公里或以上
散云层高于1000英尺
多云层高于1500英尺

METAR: EGSH 301920Z 22008KT 9999 SCT010 BKN015 16/14 Q1018

时间: 19:46 (19:46 UTC)

预报

该预报发布于2小时和46分钟前的17:00 UTC
预报有效从30日的 18点(UTC)到 30日的 24点(UTC)
风速10节,风向西南
能见度10公里或以上
少量云层高于1300英尺
成为
从 30日的 18点(UTC)到 30日的 21点(UTC)
风速3节,风向多变
多云层高于1300英尺
短暂存在
从 30日的 18点(UTC)到 30日的 24点(UTC)
能見度: 4000
多云层高于500英尺
小毛毛雨
几率 30% :
短暂存在
从 30日的 18点(UTC)到 30日的 24点(UTC)
多云层高于200英尺

TAF: EGSH 301700Z 3018/3024 23010KT 9999 FEW013 BECMG 3018/3021 VRB03KT BKN013 TEMPO 3018/3024 4000 -DZ BKN005 PROB30 TEMPO 3018/3024 BKN002

超过4000个机场的气象观测和天气预报(METAR&TAF报告)。

可查询的气象台以黄色和红色小点在地图上表示。

将鼠标移到小点上方,可查看气象台名称。

然后点击查看天气观测和预报。

如需切换地图:点击带黑十字的绿色按钮放大地图;点击带横线的绿色按钮缩小地图;或者点击绿色箭头查看邻近地区的地图。


METAR-TAF: